sensor_id;sensor_type;location;lat;lon;timestamp;temperature;humidity
6106;DHT22;3083;51.508;7.966;2023-12-20T00:00:57;7.10;99.90
6106;DHT22;3083;51.508;7.966;2023-12-20T00:03:23;7.10;99.90
6106;DHT22;3083;51.508;7.966;2023-12-20T00:05:50;7.10;99.90
6106;DHT22;3083;51.508;7.966;2023-12-20T00:08:18;7.10;99.90
6106;DHT22;3083;51.508;7.966;2023-12-20T00:10:45;7.10;99.90
6106;DHT22;3083;51.508;7.966;2023-12-20T00:13:13;7.10;99.90
6106;DHT22;3083;51.508;7.966;2023-12-20T00:15:40;7.10;99.90
6106;DHT22;3083;51.508;7.966;2023-12-20T00:18:07;7.10;99.90
6106;DHT22;3083;51.508;7.966;2023-12-20T00:20:34;7.10;99.90
6106;DHT22;3083;51.508;7.966;2023-12-20T00:23:01;7.10;99.90
6106;DHT22;3083;51.508;7.966;2023-12-20T00:25:28;7.10;99.90
6106;DHT22;3083;51.508;7.966;2023-12-20T00:27:55;7.10;99.90
6106;DHT22;3083;51.508;7.966;2023-12-20T00:30:26;7.10;99.90
6106;DHT22;3083;51.508;7.966;2023-12-20T00:32:52;7.00;99.90
6106;DHT22;3083;51.508;7.966;2023-12-20T00:35:19;7.00;99.90
6106;DHT22;3083;51.508;7.966;2023-12-20T00:37:46;7.00;99.90
6106;DHT22;3083;51.508;7.966;2023-12-20T00:40:13;7.00;99.90
6106;DHT22;3083;51.508;7.966;2023-12-20T00:42:40;6.90;99.90
6106;DHT22;3083;51.508;7.966;2023-12-20T00:45:07;6.90;99.90
6106;DHT22;3083;51.508;7.966;2023-12-20T00:47:35;6.90;99.90
6106;DHT22;3083;51.508;7.966;2023-12-20T00:50:02;6.90;99.90
6106;DHT22;3083;51.508;7.966;2023-12-20T00:52:30;6.80;99.90
6106;DHT22;3083;51.508;7.966;2023-12-20T00:54:57;6.80;99.90
6106;DHT22;3083;51.508;7.966;2023-12-20T00:57:23;6.80;99.90
6106;DHT22;3083;51.508;7.966;2023-12-20T00:59:51;6.70;99.90
6106;DHT22;3083;51.508;7.966;2023-12-20T01:02:17;6.70;99.90
6106;DHT22;3083;51.508;7.966;2023-12-20T01:04:46;6.70;99.90
6106;DHT22;3083;51.508;7.966;2023-12-20T01:07:13;6.60;99.90
6106;DHT22;3083;51.508;7.966;2023-12-20T01:09:39;6.60;99.90
6106;DHT22;3083;51.508;7.966;2023-12-20T01:12:06;6.60;99.90
6106;DHT22;3083;51.508;7.966;2023-12-20T01:14:33;6.50;99.90
6106;DHT22;3083;51.508;7.966;2023-12-20T01:17:01;6.50;99.90
6106;DHT22;3083;51.508;7.966;2023-12-20T01:19:28;6.60;99.90
6106;DHT22;3083;51.508;7.966;2023-12-20T01:21:57;6.60;99.90
6106;DHT22;3083;51.508;7.966;2023-12-20T01:24:24;6.50;99.90
6106;DHT22;3083;51.508;7.966;2023-12-20T01:26:50;6.50;99.90
6106;DHT22;3083;51.508;7.966;2023-12-20T01:29:17;6.60;99.90
6106;DHT22;3083;51.508;7.966;2023-12-20T01:31:44;6.60;99.90
6106;DHT22;3083;51.508;7.966;2023-12-20T01:34:11;6.50;99.90
6106;DHT22;3083;51.508;7.966;2023-12-20T01:36:38;6.50;99.90
6106;DHT22;3083;51.508;7.966;2023-12-20T01:39:06;6.50;99.90
6106;DHT22;3083;51.508;7.966;2023-12-20T01:41:33;6.40;99.90
6106;DHT22;3083;51.508;7.966;2023-12-20T01:44:00;6.40;99.90
6106;DHT22;3083;51.508;7.966;2023-12-20T01:46:27;6.40;99.90
6106;DHT22;3083;51.508;7.966;2023-12-20T01:48:54;6.30;99.90
6106;DHT22;3083;51.508;7.966;2023-12-20T01:51:21;6.40;99.90
6106;DHT22;3083;51.508;7.966;2023-12-20T01:53:49;6.40;99.90
6106;DHT22;3083;51.508;7.966;2023-12-20T01:56:17;6.40;99.90
6106;DHT22;3083;51.508;7.966;2023-12-20T01:58:45;6.30;99.90
6106;DHT22;3083;51.508;7.966;2023-12-20T02:01:13;6.30;99.90
6106;DHT22;3083;51.508;7.966;2023-12-20T02:03:40;6.30;99.90
6106;DHT22;3083;51.508;7.966;2023-12-20T02:06:08;6.30;99.90
6106;DHT22;3083;51.508;7.966;2023-12-20T02:08:36;6.30;99.90
6106;DHT22;3083;51.508;7.966;2023-12-20T02:11:03;6.30;99.90
6106;DHT22;3083;51.508;7.966;2023-12-20T02:13:32;6.20;99.90
6106;DHT22;3083;51.508;7.966;2023-12-20T02:15:59;6.20;99.90
6106;DHT22;3083;51.508;7.966;2023-12-20T02:18:26;6.20;99.90
6106;DHT22;3083;51.508;7.966;2023-12-20T02:20:53;6.20;99.90
6106;DHT22;3083;51.508;7.966;2023-12-20T02:23:22;6.10;99.90
6106;DHT22;3083;51.508;7.966;2023-12-20T02:25:49;6.10;99.90
6106;DHT22;3083;51.508;7.966;2023-12-20T02:28:16;6.10;99.90
6106;DHT22;3083;51.508;7.966;2023-12-20T02:30:43;6.10;99.90
6106;DHT22;3083;51.508;7.966;2023-12-20T02:33:12;6.00;99.90
6106;DHT22;3083;51.508;7.966;2023-12-20T02:35:40;6.00;99.90
6106;DHT22;3083;51.508;7.966;2023-12-20T02:38:07;5.90;99.90
6106;DHT22;3083;51.508;7.966;2023-12-20T02:40:36;5.90;99.90
6106;DHT22;3083;51.508;7.966;2023-12-20T02:43:03;5.80;99.90
6106;DHT22;3083;51.508;7.966;2023-12-20T02:45:30;5.70;99.90
6106;DHT22;3083;51.508;7.966;2023-12-20T02:47:57;5.70;99.90
6106;DHT22;3083;51.508;7.966;2023-12-20T02:50:23;5.60;99.90
6106;DHT22;3083;51.508;7.966;2023-12-20T02:52:49;5.70;99.90
6106;DHT22;3083;51.508;7.966;2023-12-20T02:55:16;5.70;99.90
6106;DHT22;3083;51.508;7.966;2023-12-20T02:57:44;5.70;99.90
6106;DHT22;3083;51.508;7.966;2023-12-20T03:00:12;5.70;99.90
6106;DHT22;3083;51.508;7.966;2023-12-20T03:02:39;5.70;99.90
6106;DHT22;3083;51.508;7.966;2023-12-20T03:05:06;5.70;99.90
6106;DHT22;3083;51.508;7.966;2023-12-20T03:07:33;5.70;99.90
6106;DHT22;3083;51.508;7.966;2023-12-20T03:10:00;5.70;99.90
6106;DHT22;3083;51.508;7.966;2023-12-20T03:12:27;5.70;99.90
6106;DHT22;3083;51.508;7.966;2023-12-20T03:14:55;5.70;99.90
6106;DHT22;3083;51.508;7.966;2023-12-20T03:17:22;5.70;99.90
6106;DHT22;3083;51.508;7.966;2023-12-20T03:19:49;5.70;99.90
6106;DHT22;3083;51.508;7.966;2023-12-20T03:22:16;5.70;99.90
6106;DHT22;3083;51.508;7.966;2023-12-20T03:24:43;5.70;99.90
6106;DHT22;3083;51.508;7.966;2023-12-20T03:27:09;5.70;99.90
6106;DHT22;3083;51.508;7.966;2023-12-20T03:29:37;5.80;99.90
6106;DHT22;3083;51.508;7.966;2023-12-20T03:32:06;5.80;99.90
6106;DHT22;3083;51.508;7.966;2023-12-20T03:34:34;5.80;99.90
6106;DHT22;3083;51.508;7.966;2023-12-20T03:37:01;5.80;99.90
6106;DHT22;3083;51.508;7.966;2023-12-20T03:39:27;5.80;99.90
6106;DHT22;3083;51.508;7.966;2023-12-20T03:41:54;5.80;99.90
6106;DHT22;3083;51.508;7.966;2023-12-20T03:44:21;5.90;99.90
6106;DHT22;3083;51.508;7.966;2023-12-20T03:46:48;5.90;99.90
6106;DHT22;3083;51.508;7.966;2023-12-20T03:49:16;5.80;99.90
6106;DHT22;3083;51.508;7.966;2023-12-20T03:51:43;5.90;99.90
6106;DHT22;3083;51.508;7.966;2023-12-20T03:54:09;5.90;99.90
6106;DHT22;3083;51.508;7.966;2023-12-20T03:56:36;5.90;99.90
6106;DHT22;3083;51.508;7.966;2023-12-20T03:59:03;5.80;99.90
6106;DHT22;3083;51.508;7.966;2023-12-20T04:01:30;5.80;99.90
6106;DHT22;3083;51.508;7.966;2023-12-20T04:03:57;5.80;99.90
6106;DHT22;3083;51.508;7.966;2023-12-20T04:06:25;5.80;99.90
6106;DHT22;3083;51.508;7.966;2023-12-20T04:08:52;5.80;99.90
6106;DHT22;3083;51.508;7.966;2023-12-20T04:11:19;5.80;99.90
6106;DHT22;3083;51.508;7.966;2023-12-20T04:13:45;5.80;99.90
6106;DHT22;3083;51.508;7.966;2023-12-20T04:16:12;5.80;99.90
6106;DHT22;3083;51.508;7.966;2023-12-20T04:18:39;5.70;99.90
6106;DHT22;3083;51.508;7.966;2023-12-20T04:21:06;5.70;99.90
6106;DHT22;3083;51.508;7.966;2023-12-20T04:23:34;5.70;99.90
6106;DHT22;3083;51.508;7.966;2023-12-20T04:26:01;5.60;99.90
6106;DHT22;3083;51.508;7.966;2023-12-20T04:28:28;5.70;99.90
6106;DHT22;3083;51.508;7.966;2023-12-20T04:30:55;5.60;99.90
6106;DHT22;3083;51.508;7.966;2023-12-20T04:33:22;5.70;99.90
6106;DHT22;3083;51.508;7.966;2023-12-20T04:35:50;5.70;99.90
6106;DHT22;3083;51.508;7.966;2023-12-20T04:38:17;5.70;99.90
6106;DHT22;3083;51.508;7.966;2023-12-20T04:40:45;5.70;99.90
6106;DHT22;3083;51.508;7.966;2023-12-20T04:43:12;5.70;99.90
6106;DHT22;3083;51.508;7.966;2023-12-20T04:45:38;5.60;99.90
6106;DHT22;3083;51.508;7.966;2023-12-20T04:48:06;5.60;99.90
6106;DHT22;3083;51.508;7.966;2023-12-20T04:50:33;5.60;99.90
6106;DHT22;3083;51.508;7.966;2023-12-20T04:53:00;5.60;99.90
6106;DHT22;3083;51.508;7.966;2023-12-20T04:55:26;5.60;99.90
6106;DHT22;3083;51.508;7.966;2023-12-20T04:57:55;5.60;99.90
6106;DHT22;3083;51.508;7.966;2023-12-20T05:00:22;5.60;99.90
6106;DHT22;3083;51.508;7.966;2023-12-20T05:02:49;5.50;99.90
6106;DHT22;3083;51.508;7.966;2023-12-20T05:05:15;5.50;99.90
6106;DHT22;3083;51.508;7.966;2023-12-20T05:07:43;5.50;99.90
6106;DHT22;3083;51.508;7.966;2023-12-20T05:10:10;5.50;99.90
6106;DHT22;3083;51.508;7.966;2023-12-20T05:12:37;5.50;99.90
6106;DHT22;3083;51.508;7.966;2023-12-20T05:15:06;5.50;99.90
6106;DHT22;3083;51.508;7.966;2023-12-20T05:17:33;5.50;99.90
6106;DHT22;3083;51.508;7.966;2023-12-20T05:20:00;5.50;99.90
6106;DHT22;3083;51.508;7.966;2023-12-20T05:22:27;5.50;99.90
6106;DHT22;3083;51.508;7.966;2023-12-20T05:24:54;5.60;99.90
6106;DHT22;3083;51.508;7.966;2023-12-20T05:27:21;5.50;99.90
6106;DHT22;3083;51.508;7.966;2023-12-20T05:29:48;5.50;99.90
6106;DHT22;3083;51.508;7.966;2023-12-20T05:32:19;5.60;99.90
6106;DHT22;3083;51.508;7.966;2023-12-20T05:34:46;5.60;99.90
6106;DHT22;3083;51.508;7.966;2023-12-20T05:37:13;5.60;99.90
6106;DHT22;3083;51.508;7.966;2023-12-20T05:39:42;5.60;99.90
6106;DHT22;3083;51.508;7.966;2023-12-20T05:42:09;5.60;99.90
6106;DHT22;3083;51.508;7.966;2023-12-20T05:44:36;5.60;99.90
6106;DHT22;3083;51.508;7.966;2023-12-20T05:47:03;5.60;99.90
6106;DHT22;3083;51.508;7.966;2023-12-20T05:49:32;5.70;99.90
6106;DHT22;3083;51.508;7.966;2023-12-20T05:51:58;5.70;99.90
6106;DHT22;3083;51.508;7.966;2023-12-20T05:54:25;5.70;99.90
6106;DHT22;3083;51.508;7.966;2023-12-20T05:56:52;5.60;99.90
6106;DHT22;3083;51.508;7.966;2023-12-20T05:59:19;5.60;99.90
6106;DHT22;3083;51.508;7.966;2023-12-20T06:01:46;5.60;99.90
6106;DHT22;3083;51.508;7.966;2023-12-20T06:04:13;5.60;99.90
6106;DHT22;3083;51.508;7.966;2023-12-20T06:06:44;5.60;99.90
6106;DHT22;3083;51.508;7.966;2023-12-20T06:09:11;5.50;99.90
6106;DHT22;3083;51.508;7.966;2023-12-20T06:11:38;5.50;99.90
6106;DHT22;3083;51.508;7.966;2023-12-20T06:14:05;5.50;99.90
6106;DHT22;3083;51.508;7.966;2023-12-20T06:16:32;5.50;99.90
6106;DHT22;3083;51.508;7.966;2023-12-20T06:18:59;5.50;99.90
6106;DHT22;3083;51.508;7.966;2023-12-20T06:21:26;5.50;99.90
6106;DHT22;3083;51.508;7.966;2023-12-20T06:23:54;5.50;99.90
6106;DHT22;3083;51.508;7.966;2023-12-20T06:26:21;5.50;99.90
6106;DHT22;3083;51.508;7.966;2023-12-20T06:28:48;5.50;99.90
6106;DHT22;3083;51.508;7.966;2023-12-20T06:31:15;5.50;99.90
6106;DHT22;3083;51.508;7.966;2023-12-20T06:33:43;5.50;99.90
6106;DHT22;3083;51.508;7.966;2023-12-20T06:36:11;5.60;99.90
6106;DHT22;3083;51.508;7.966;2023-12-20T06:38:38;5.60;99.90
6106;DHT22;3083;51.508;7.966;2023-12-20T06:41:07;5.60;99.90
6106;DHT22;3083;51.508;7.966;2023-12-20T06:43:34;5.50;99.90
6106;DHT22;3083;51.508;7.966;2023-12-20T06:46:01;5.50;99.90
6106;DHT22;3083;51.508;7.966;2023-12-20T06:48:28;5.60;99.90
6106;DHT22;3083;51.508;7.966;2023-12-20T06:50:55;5.60;99.90
6106;DHT22;3083;51.508;7.966;2023-12-20T06:53:22;5.60;99.90
6106;DHT22;3083;51.508;7.966;2023-12-20T06:55:48;5.60;99.90
6106;DHT22;3083;51.508;7.966;2023-12-20T06:58:17;5.60;99.90
6106;DHT22;3083;51.508;7.966;2023-12-20T07:00:43;5.60;99.90
6106;DHT22;3083;51.508;7.966;2023-12-20T07:03:10;5.50;99.90
6106;DHT22;3083;51.508;7.966;2023-12-20T07:05:37;5.60;99.90
6106;DHT22;3083;51.508;7.966;2023-12-20T07:08:05;5.60;99.90
6106;DHT22;3083;51.508;7.966;2023-12-20T07:10:32;5.60;99.90
6106;DHT22;3083;51.508;7.966;2023-12-20T07:12:59;5.60;99.90
6106;DHT22;3083;51.508;7.966;2023-12-20T07:15:27;5.60;99.90
6106;DHT22;3083;51.508;7.966;2023-12-20T07:17:55;5.60;99.90
6106;DHT22;3083;51.508;7.966;2023-12-20T07:20:22;5.60;99.90
6106;DHT22;3083;51.508;7.966;2023-12-20T07:22:49;5.60;99.90
6106;DHT22;3083;51.508;7.966;2023-12-20T07:25:16;5.60;99.90
6106;DHT22;3083;51.508;7.966;2023-12-20T07:27:43;5.60;99.90
6106;DHT22;3083;51.508;7.966;2023-12-20T07:30:11;5.60;99.90
6106;DHT22;3083;51.508;7.966;2023-12-20T07:32:39;5.60;99.90
6106;DHT22;3083;51.508;7.966;2023-12-20T07:35:07;5.60;99.90
6106;DHT22;3083;51.508;7.966;2023-12-20T07:37:33;5.60;99.90
6106;DHT22;3083;51.508;7.966;2023-12-20T07:40:00;5.60;99.90
6106;DHT22;3083;51.508;7.966;2023-12-20T07:42:28;5.60;99.90
6106;DHT22;3083;51.508;7.966;2023-12-20T07:44:55;5.60;99.90
6106;DHT22;3083;51.508;7.966;2023-12-20T07:47:22;5.60;99.90
6106;DHT22;3083;51.508;7.966;2023-12-20T07:49:52;5.60;99.90
6106;DHT22;3083;51.508;7.966;2023-12-20T07:52:19;5.60;99.90
6106;DHT22;3083;51.508;7.966;2023-12-20T07:54:47;5.60;99.90
6106;DHT22;3083;51.508;7.966;2023-12-20T07:57:14;5.60;99.90
6106;DHT22;3083;51.508;7.966;2023-12-20T07:59:41;5.70;99.90
6106;DHT22;3083;51.508;7.966;2023-12-20T08:02:09;5.70;99.90
6106;DHT22;3083;51.508;7.966;2023-12-20T08:04:36;5.70;99.90
6106;DHT22;3083;51.508;7.966;2023-12-20T08:07:05;5.70;99.90
6106;DHT22;3083;51.508;7.966;2023-12-20T08:09:32;5.70;99.90
6106;DHT22;3083;51.508;7.966;2023-12-20T08:11:59;5.70;99.90
6106;DHT22;3083;51.508;7.966;2023-12-20T08:14:26;5.70;99.90
6106;DHT22;3083;51.508;7.966;2023-12-20T08:16:53;5.70;99.90
6106;DHT22;3083;51.508;7.966;2023-12-20T08:19:20;5.60;99.90
6106;DHT22;3083;51.508;7.966;2023-12-20T08:21:47;5.70;99.90
6106;DHT22;3083;51.508;7.966;2023-12-20T08:24:15;5.70;99.90
6106;DHT22;3083;51.508;7.966;2023-12-20T08:26:42;5.70;99.90
6106;DHT22;3083;51.508;7.966;2023-12-20T08:29:09;5.70;99.90
6106;DHT22;3083;51.508;7.966;2023-12-20T08:31:36;5.70;99.90
6106;DHT22;3083;51.508;7.966;2023-12-20T08:34:03;5.70;99.90
6106;DHT22;3083;51.508;7.966;2023-12-20T08:36:29;5.70;99.90
6106;DHT22;3083;51.508;7.966;2023-12-20T08:38:56;5.70;99.90
6106;DHT22;3083;51.508;7.966;2023-12-20T08:41:25;5.70;99.90
6106;DHT22;3083;51.508;7.966;2023-12-20T08:43:51;5.70;99.90
6106;DHT22;3083;51.508;7.966;2023-12-20T08:46:18;5.80;99.90
6106;DHT22;3083;51.508;7.966;2023-12-20T08:48:45;5.80;99.90
6106;DHT22;3083;51.508;7.966;2023-12-20T08:51:13;5.80;99.90
6106;DHT22;3083;51.508;7.966;2023-12-20T08:53:40;5.90;99.90
6106;DHT22;3083;51.508;7.966;2023-12-20T08:56:07;5.90;99.90
6106;DHT22;3083;51.508;7.966;2023-12-20T08:58:35;5.90;99.90
6106;DHT22;3083;51.508;7.966;2023-12-20T09:01:02;5.90;99.90
6106;DHT22;3083;51.508;7.966;2023-12-20T09:03:29;5.90;99.90
6106;DHT22;3083;51.508;7.966;2023-12-20T09:05:56;5.90;99.90
6106;DHT22;3083;51.508;7.966;2023-12-20T09:08:23;5.90;99.90
6106;DHT22;3083;51.508;7.966;2023-12-20T09:10:50;5.90;99.90
6106;DHT22;3083;51.508;7.966;2023-12-20T09:13:18;6.00;99.90
6106;DHT22;3083;51.508;7.966;2023-12-20T09:15:47;6.00;99.90
6106;DHT22;3083;51.508;7.966;2023-12-20T09:18:14;6.00;99.90
6106;DHT22;3083;51.508;7.966;2023-12-20T09:20:42;6.00;99.90
6106;DHT22;3083;51.508;7.966;2023-12-20T09:23:09;6.00;99.90
6106;DHT22;3083;51.508;7.966;2023-12-20T09:25:36;6.00;99.90
6106;DHT22;3083;51.508;7.966;2023-12-20T09:28:03;6.10;99.90
6106;DHT22;3083;51.508;7.966;2023-12-20T09:30:30;6.00;99.90
6106;DHT22;3083;51.508;7.966;2023-12-20T09:32:59;6.10;99.90
6106;DHT22;3083;51.508;7.966;2023-12-20T09:35:26;6.10;99.90
6106;DHT22;3083;51.508;7.966;2023-12-20T09:37:53;6.10;99.90
6106;DHT22;3083;51.508;7.966;2023-12-20T09:40:20;6.10;99.90
6106;DHT22;3083;51.508;7.966;2023-12-20T09:42:50;6.10;99.90
6106;DHT22;3083;51.508;7.966;2023-12-20T09:45:20;6.10;99.90
6106;DHT22;3083;51.508;7.966;2023-12-20T09:47:49;6.10;99.90
6106;DHT22;3083;51.508;7.966;2023-12-20T09:50:18;6.20;99.90
6106;DHT22;3083;51.508;7.966;2023-12-20T09:52:50;6.20;99.90
6106;DHT22;3083;51.508;7.966;2023-12-20T09:55:17;6.20;99.90
6106;DHT22;3083;51.508;7.966;2023-12-20T09:57:44;6.20;99.90
6106;DHT22;3083;51.508;7.966;2023-12-20T10:00:12;6.20;99.90
6106;DHT22;3083;51.508;7.966;2023-12-20T10:02:45;6.20;99.90
6106;DHT22;3083;51.508;7.966;2023-12-20T10:05:16;6.20;99.90
6106;DHT22;3083;51.508;7.966;2023-12-20T10:07:46;6.30;99.90
6106;DHT22;3083;51.508;7.966;2023-12-20T10:10:13;6.30;99.90
6106;DHT22;3083;51.508;7.966;2023-12-20T10:12:40;6.40;99.90
6106;DHT22;3083;51.508;7.966;2023-12-20T10:15:07;6.40;99.90
6106;DHT22;3083;51.508;7.966;2023-12-20T10:17:36;6.40;99.90
6106;DHT22;3083;51.508;7.966;2023-12-20T10:20:04;6.50;99.90
6106;DHT22;3083;51.508;7.966;2023-12-20T10:22:35;6.50;99.90
6106;DHT22;3083;51.508;7.966;2023-12-20T10:25:04;6.60;99.90
6106;DHT22;3083;51.508;7.966;2023-12-20T10:27:32;6.60;99.90
6106;DHT22;3083;51.508;7.966;2023-12-20T10:29:59;6.60;99.90
6106;DHT22;3083;51.508;7.966;2023-12-20T10:32:27;6.70;99.90
6106;DHT22;3083;51.508;7.966;2023-12-20T10:34:55;6.80;99.90
6106;DHT22;3083;51.508;7.966;2023-12-20T10:37:22;6.80;99.90
6106;DHT22;3083;51.508;7.966;2023-12-20T10:39:51;6.90;99.90
6106;DHT22;3083;51.508;7.966;2023-12-20T10:42:22;7.00;99.90
6106;DHT22;3083;51.508;7.966;2023-12-20T10:44:51;7.00;99.90
6106;DHT22;3083;51.508;7.966;2023-12-20T10:47:19;7.00;99.90
6106;DHT22;3083;51.508;7.966;2023-12-20T10:49:47;7.00;99.90
6106;DHT22;3083;51.508;7.966;2023-12-20T10:52:14;7.00;99.90
6106;DHT22;3083;51.508;7.966;2023-12-20T10:54:43;7.00;99.90
6106;DHT22;3083;51.508;7.966;2023-12-20T10:57:12;6.90;99.90
6106;DHT22;3083;51.508;7.966;2023-12-20T10:59:40;6.90;99.90
6106;DHT22;3083;51.508;7.966;2023-12-20T11:02:07;6.80;99.90
6106;DHT22;3083;51.508;7.966;2023-12-20T11:04:41;6.80;99.90
6106;DHT22;3083;51.508;7.966;2023-12-20T11:07:19;6.80;99.90
6106;DHT22;3083;51.508;7.966;2023-12-20T11:09:56;6.80;99.90
6106;DHT22;3083;51.508;7.966;2023-12-20T11:12:32;6.80;99.90
6106;DHT22;3083;51.508;7.966;2023-12-20T11:15:04;6.80;99.90
6106;DHT22;3083;51.508;7.966;2023-12-20T11:17:32;6.80;99.90
6106;DHT22;3083;51.508;7.966;2023-12-20T11:20:06;6.70;99.90
6106;DHT22;3083;51.508;7.966;2023-12-20T11:22:36;6.70;99.90
6106;DHT22;3083;51.508;7.966;2023-12-20T11:25:05;6.70;99.90
6106;DHT22;3083;51.508;7.966;2023-12-20T11:27:34;6.60;99.90
6106;DHT22;3083;51.508;7.966;2023-12-20T11:30:05;6.60;99.90
6106;DHT22;3083;51.508;7.966;2023-12-20T11:32:35;6.60;99.90
6106;DHT22;3083;51.508;7.966;2023-12-20T11:35:17;6.60;99.90
6106;DHT22;3083;51.508;7.966;2023-12-20T11:37:45;6.60;99.90
6106;DHT22;3083;51.508;7.966;2023-12-20T11:40:15;6.60;99.90
6106;DHT22;3083;51.508;7.966;2023-12-20T11:42:43;6.60;99.90
6106;DHT22;3083;51.508;7.966;2023-12-20T11:45:14;6.60;99.90
6106;DHT22;3083;51.508;7.966;2023-12-20T11:47:43;6.60;99.90
6106;DHT22;3083;51.508;7.966;2023-12-20T11:50:12;6.60;99.90
6106;DHT22;3083;51.508;7.966;2023-12-20T11:52:39;6.70;99.90
6106;DHT22;3083;51.508;7.966;2023-12-20T11:55:06;6.70;99.90
6106;DHT22;3083;51.508;7.966;2023-12-20T11:57:33;6.70;99.90
6106;DHT22;3083;51.508;7.966;2023-12-20T12:00:00;6.70;99.90
6106;DHT22;3083;51.508;7.966;2023-12-20T12:02:30;6.80;99.90
6106;DHT22;3083;51.508;7.966;2023-12-20T12:04:57;6.80;99.90
6106;DHT22;3083;51.508;7.966;2023-12-20T12:07:25;6.80;99.90
6106;DHT22;3083;51.508;7.966;2023-12-20T12:09:52;6.80;99.90
6106;DHT22;3083;51.508;7.966;2023-12-20T12:12:19;6.80;99.90
6106;DHT22;3083;51.508;7.966;2023-12-20T12:14:48;6.80;99.90
6106;DHT22;3083;51.508;7.966;2023-12-20T12:17:15;6.80;99.90
6106;DHT22;3083;51.508;7.966;2023-12-20T12:19:44;6.80;99.90
6106;DHT22;3083;51.508;7.966;2023-12-20T12:22:12;6.80;99.90
6106;DHT22;3083;51.508;7.966;2023-12-20T12:24:42;6.80;99.90
6106;DHT22;3083;51.508;7.966;2023-12-20T12:27:10;6.80;99.90
6106;DHT22;3083;51.508;7.966;2023-12-20T12:29:38;6.80;99.90
6106;DHT22;3083;51.508;7.966;2023-12-20T12:32:05;6.80;99.90
6106;DHT22;3083;51.508;7.966;2023-12-20T12:34:33;6.80;99.90
6106;DHT22;3083;51.508;7.966;2023-12-20T12:37:03;6.70;99.90
6106;DHT22;3083;51.508;7.966;2023-12-20T12:39:30;6.80;99.90
6106;DHT22;3083;51.508;7.966;2023-12-20T12:41:57;6.80;99.90
6106;DHT22;3083;51.508;7.966;2023-12-20T12:44:24;6.80;99.90
6106;DHT22;3083;51.508;7.966;2023-12-20T12:46:52;6.80;99.90
6106;DHT22;3083;51.508;7.966;2023-12-20T12:49:19;6.80;99.90
6106;DHT22;3083;51.508;7.966;2023-12-20T12:51:46;6.80;99.90
6106;DHT22;3083;51.508;7.966;2023-12-20T12:54:15;6.80;99.90
6106;DHT22;3083;51.508;7.966;2023-12-20T12:56:43;6.80;99.90
6106;DHT22;3083;51.508;7.966;2023-12-20T12:59:10;6.70;99.90
6106;DHT22;3083;51.508;7.966;2023-12-20T13:01:37;6.70;99.90
6106;DHT22;3083;51.508;7.966;2023-12-20T13:04:04;6.70;99.90
6106;DHT22;3083;51.508;7.966;2023-12-20T13:06:36;6.70;99.90
6106;DHT22;3083;51.508;7.966;2023-12-20T13:09:03;6.60;99.90
6106;DHT22;3083;51.508;7.966;2023-12-20T13:11:31;6.60;99.90
6106;DHT22;3083;51.508;7.966;2023-12-20T13:13:58;6.60;99.90
6106;DHT22;3083;51.508;7.966;2023-12-20T13:16:25;6.60;99.90
6106;DHT22;3083;51.508;7.966;2023-12-20T13:18:52;6.60;99.90
6106;DHT22;3083;51.508;7.966;2023-12-20T13:21:19;6.50;99.90
6106;DHT22;3083;51.508;7.966;2023-12-20T13:23:46;6.60;99.90
6106;DHT22;3083;51.508;7.966;2023-12-20T13:26:13;6.50;99.90
6106;DHT22;3083;51.508;7.966;2023-12-20T13:28:41;6.60;99.90
6106;DHT22;3083;51.508;7.966;2023-12-20T13:31:08;6.60;99.90
6106;DHT22;3083;51.508;7.966;2023-12-20T13:33:35;6.60;99.90
6106;DHT22;3083;51.508;7.966;2023-12-20T13:36:02;6.60;99.90
6106;DHT22;3083;51.508;7.966;2023-12-20T13:38:29;6.60;99.90
6106;DHT22;3083;51.508;7.966;2023-12-20T13:40:56;6.60;99.90
6106;DHT22;3083;51.508;7.966;2023-12-20T13:43:24;6.60;99.90
6106;DHT22;3083;51.508;7.966;2023-12-20T13:45:52;6.70;99.90
6106;DHT22;3083;51.508;7.966;2023-12-20T13:48:19;6.70;99.90
6106;DHT22;3083;51.508;7.966;2023-12-20T13:50:46;6.70;99.90
6106;DHT22;3083;51.508;7.966;2023-12-20T13:53:13;6.80;99.90
6106;DHT22;3083;51.508;7.966;2023-12-20T13:55:41;6.80;99.90
6106;DHT22;3083;51.508;7.966;2023-12-20T13:58:07;6.80;99.90
6106;DHT22;3083;51.508;7.966;2023-12-20T14:00:35;6.90;99.90
6106;DHT22;3083;51.508;7.966;2023-12-20T14:03:05;6.90;99.90
6106;DHT22;3083;51.508;7.966;2023-12-20T14:05:32;6.80;99.90
6106;DHT22;3083;51.508;7.966;2023-12-20T14:07:59;6.80;99.90
6106;DHT22;3083;51.508;7.966;2023-12-20T14:10:26;6.80;99.90
6106;DHT22;3083;51.508;7.966;2023-12-20T14:12:53;6.80;99.90
6106;DHT22;3083;51.508;7.966;2023-12-20T14:15:20;6.80;99.90
6106;DHT22;3083;51.508;7.966;2023-12-20T14:17:47;6.80;99.90
6106;DHT22;3083;51.508;7.966;2023-12-20T14:20:15;6.80;99.90
6106;DHT22;3083;51.508;7.966;2023-12-20T14:22:42;6.80;99.90
6106;DHT22;3083;51.508;7.966;2023-12-20T14:25:11;6.80;99.90
6106;DHT22;3083;51.508;7.966;2023-12-20T14:27:38;6.70;99.90
6106;DHT22;3083;51.508;7.966;2023-12-20T14:30:06;6.70;99.90
6106;DHT22;3083;51.508;7.966;2023-12-20T14:32:35;6.80;99.90
6106;DHT22;3083;51.508;7.966;2023-12-20T14:35:04;6.70;99.90
6106;DHT22;3083;51.508;7.966;2023-12-20T14:37:33;6.70;99.90
6106;DHT22;3083;51.508;7.966;2023-12-20T14:40:00;6.70;99.90
6106;DHT22;3083;51.508;7.966;2023-12-20T14:42:26;6.70;99.90
6106;DHT22;3083;51.508;7.966;2023-12-20T14:44:53;6.60;99.90
6106;DHT22;3083;51.508;7.966;2023-12-20T14:47:21;6.60;99.90
6106;DHT22;3083;51.508;7.966;2023-12-20T14:49:48;6.60;99.90
6106;DHT22;3083;51.508;7.966;2023-12-20T14:52:15;6.60;99.90
6106;DHT22;3083;51.508;7.966;2023-12-20T14:54:45;6.60;99.90
6106;DHT22;3083;51.508;7.966;2023-12-20T14:57:12;6.60;99.90
6106;DHT22;3083;51.508;7.966;2023-12-20T14:59:39;6.60;99.90
6106;DHT22;3083;51.508;7.966;2023-12-20T15:02:06;6.60;99.90
6106;DHT22;3083;51.508;7.966;2023-12-20T15:04:33;6.60;99.90
6106;DHT22;3083;51.508;7.966;2023-12-20T15:07:00;6.60;99.90
6106;DHT22;3083;51.508;7.966;2023-12-20T15:09:30;6.60;99.90
6106;DHT22;3083;51.508;7.966;2023-12-20T15:11:58;6.60;99.90
6106;DHT22;3083;51.508;7.966;2023-12-20T15:14:26;6.60;99.90
6106;DHT22;3083;51.508;7.966;2023-12-20T15:16:54;6.60;99.90
6106;DHT22;3083;51.508;7.966;2023-12-20T15:19:22;6.50;99.90
6106;DHT22;3083;51.508;7.966;2023-12-20T15:21:49;6.50;99.90
6106;DHT22;3083;51.508;7.966;2023-12-20T15:24:16;6.50;99.90
6106;DHT22;3083;51.508;7.966;2023-12-20T15:26:52;6.50;99.90
6106;DHT22;3083;51.508;7.966;2023-12-20T15:29:20;6.50;99.90
6106;DHT22;3083;51.508;7.966;2023-12-20T15:31:47;6.50;99.90
6106;DHT22;3083;51.508;7.966;2023-12-20T15:34:15;6.50;99.90
6106;DHT22;3083;51.508;7.966;2023-12-20T15:36:42;6.50;99.90
6106;DHT22;3083;51.508;7.966;2023-12-20T15:39:09;6.50;99.90
6106;DHT22;3083;51.508;7.966;2023-12-20T15:41:39;6.50;99.90
6106;DHT22;3083;51.508;7.966;2023-12-20T15:44:06;6.50;99.90
6106;DHT22;3083;51.508;7.966;2023-12-20T15:46:34;6.50;99.90
6106;DHT22;3083;51.508;7.966;2023-12-20T15:49:01;6.50;99.90
6106;DHT22;3083;51.508;7.966;2023-12-20T15:51:28;6.50;99.90
6106;DHT22;3083;51.508;7.966;2023-12-20T15:53:55;6.50;99.90
6106;DHT22;3083;51.508;7.966;2023-12-20T15:56:22;6.50;99.90
6106;DHT22;3083;51.508;7.966;2023-12-20T15:58:49;6.50;99.90
6106;DHT22;3083;51.508;7.966;2023-12-20T16:01:17;6.60;99.90
6106;DHT22;3083;51.508;7.966;2023-12-20T16:03:45;6.60;99.90
6106;DHT22;3083;51.508;7.966;2023-12-20T16:06:12;6.60;99.90
6106;DHT22;3083;51.508;7.966;2023-12-20T16:08:40;6.60;99.90
6106;DHT22;3083;51.508;7.966;2023-12-20T16:11:07;6.60;99.90
6106;DHT22;3083;51.508;7.966;2023-12-20T16:13:33;6.60;99.90
6106;DHT22;3083;51.508;7.966;2023-12-20T16:16:01;6.60;99.90
6106;DHT22;3083;51.508;7.966;2023-12-20T16:18:28;6.60;99.90